Time;durP1;ratioP1;P1;durP2;ratioP2;P2;SDS_P1;SDS_P2;PMS_P1;PMS_P2;Temp;Humidity;BMP_temperature;BMP_pressure;BME280_temperature;BME280_humidity;BME280_pressure;Samples;Min_cycle;Max_cycle;Signal;HPM_P1;HPM_P2
2021/06/12 00:02:09;;;;;;;;;;;22.90;73.60;;;;;;4261409;33;20042;-81
2021/06/12 00:04:37;;;;;;;;;;;22.80;73.60;;;;;;4262244;33;20003;-81
2021/06/12 00:07:06;;;;;;;;;;;22.80;73.60;;;;;;4274519;33;20003;-81
2021/06/12 00:09:35;;;;;;;;;;;22.80;73.80;;;;;;4261400;33;20002;-81
2021/06/12 00:12:09;;;;;;;;;;;22.80;73.80;;;;;;4274019;33;20029;-81
2021/06/12 00:14:37;;;;;;;;;;;22.80;73.80;;;;;;4273742;33;20022;-82
2021/06/12 00:17:07;;;;;;;;;;;22.80;73.90;;;;;;4274581;33;20011;-81
2021/06/12 00:19:34;;;;;;;;;;;22.70;74.00;;;;;;4273276;33;25193;-81
2021/06/12 00:22:01;;;;;;;;;;;22.70;74.00;;;;;;4275153;33;20007;-81
2021/06/12 00:24:28;;;;;;;;;;;22.70;74.10;;;;;;4274637;33;20373;-81
2021/06/12 00:26:56;;;;;;;;;;;22.70;74.20;;;;;;4261722;33;20019;-81
2021/06/12 00:29:23;;;;;;;;;;;22.70;74.10;;;;;;4273255;33;20021;-81
2021/06/12 00:31:59;;;;;;;;;;;22.60;74.10;;;;;;4273717;33;20356;-81
2021/06/12 00:34:26;;;;;;;;;;;22.60;74.10;;;;;;4261418;33;20015;-81
2021/06/12 00:36:53;;;;;;;;;;;22.60;74.10;;;;;;4261709;33;20007;-81
2021/06/12 00:39:20;;;;;;;;;;;22.60;74.10;;;;;;4273560;33;20070;-81
2021/06/12 00:41:47;;;;;;;;;;;22.60;74.10;;;;;;4273297;33;20025;-81
2021/06/12 00:44:15;;;;;;;;;;;22.50;74.00;;;;;;4273358;33;20027;-81
2021/06/12 00:46:44;;;;;;;;;;;22.50;74.00;;;;;;4273094;33;20003;-81
2021/06/12 00:49:12;;;;;;;;;;;22.50;74.00;;;;;;4274686;33;20030;-81
2021/06/12 00:51:45;;;;;;;;;;;22.50;74.00;;;;;;4272913;33;20031;-81
2021/06/12 00:54:12;;;;;;;;;;;22.50;74.10;;;;;;4273422;33;23916;-82
2021/06/12 00:56:39;;;;;;;;;;;22.50;74.10;;;;;;4272987;33;20007;-82
2021/06/12 00:59:07;;;;;;;;;;;22.50;74.10;;;;;;4273069;33;20007;-81
2021/06/12 01:01:48;;;;;;;;;;;22.40;74.10;;;;;;4272705;33;20022;-81
2021/06/12 01:04:15;;;;;;;;;;;22.40;74.20;;;;;;4260789;33;22941;-81
2021/06/12 01:06:42;;;;;;;;;;;22.40;74.20;;;;;;4273995;33;20010;-81
2021/06/12 01:09:10;;;;;;;;;;;22.40;74.20;;;;;;4274472;33;20072;-81
2021/06/12 01:11:40;;;;;;;;;;;22.40;74.20;;;;;;4272845;33;20023;-81
2021/06/12 01:14:14;;;;;;;;;;;22.30;74.10;;;;;;4273140;33;20081;-82
2021/06/12 01:16:47;;;;;;;;;;;22.30;74.10;;;;;;4274419;33;20082;-81
2021/06/12 01:19:14;;;;;;;;;;;22.30;74.10;;;;;;4273089;33;20396;-81
2021/06/12 01:21:43;;;;;;;;;;;22.30;74.10;;;;;;4273688;33;20090;-81
2021/06/12 01:24:13;;;;;;;;;;;22.30;74.10;;;;;;4272947;33;20054;-81
2021/06/12 01:27:02;;;;;;;;;;;22.30;74.10;;;;;;4260873;33;20011;-81
2021/06/12 01:29:45;;;;;;;;;;;22.20;74.10;;;;;;4273087;33;42741;-81
2021/06/12 01:32:17;;;;;;;;;;;22.20;74.20;;;;;;4273120;33;43822;-81
2021/06/12 01:34:46;;;;;;;;;;;22.10;74.20;;;;;;4260101;33;29001;-81
2021/06/12 01:37:16;;;;;;;;;;;22.10;74.20;;;;;;4272488;33;39262;-81
2021/06/12 01:39:47;;;;;;;;;;;22.10;74.30;;;;;;4273550;33;30662;-81
2021/06/12 01:42:15;;;;;;;;;;;22.10;74.30;;;;;;4272018;33;44386;-81
2021/06/12 01:44:42;;;;;;;;;;;22.10;74.20;;;;;;4259866;33;46481;-81
2021/06/12 01:47:10;;;;;;;;;;;22.10;74.30;;;;;;4271914;33;36723;-81
2021/06/12 01:49:38;;;;;;;;;;;22.10;74.40;;;;;;4273850;33;20417;-81
2021/06/12 01:52:10;;;;;;;;;;;22.00;74.40;;;;;;4272672;33;43150;-81
2021/06/12 01:54:41;;;;;;;;;;;22.00;74.40;;;;;;4259299;33;44713;-82
2021/06/12 01:57:11;;;;;;;;;;;22.00;74.50;;;;;;4260059;33;23545;-81
2021/06/12 01:59:39;;;;;;;;;;;22.00;74.60;;;;;;4273542;33;20022;-81
2021/06/12 02:02:07;;;;;;;;;;;21.90;74.60;;;;;;4272299;33;39368;-82
2021/06/12 02:04:38;;;;;;;;;;;21.90;74.70;;;;;;4272255;33;44631;-81
2021/06/12 02:07:06;;;;;;;;;;;21.80;74.70;;;;;;4272453;33;35359;-82
2021/06/12 02:09:37;;;;;;;;;;;21.80;74.80;;;;;;4271744;33;44705;-81
2021/06/12 02:12:05;;;;;;;;;;;21.80;74.90;;;;;;4272673;33;28490;-81
2021/06/12 02:14:35;;;;;;;;;;;21.80;75.00;;;;;;4271528;33;44519;-81
2021/06/12 02:17:06;;;;;;;;;;;21.70;75.00;;;;;;4271661;33;39019;-81
2021/06/12 02:19:39;;;;;;;;;;;21.70;75.00;;;;;;4274736;33;28650;-82
2021/06/12 02:22:07;;;;;;;;;;;21.70;75.00;;;;;;4263236;33;20019;-81
2021/06/12 02:24:37;;;;;;;;;;;21.70;75.10;;;;;;4275986;33;20015;-82
2021/06/12 02:27:05;;;;;;;;;;;21.70;75.10;;;;;;4262706;33;20059;-81
2021/06/12 02:29:36;;;;;;;;;;;21.60;75.20;;;;;;4276316;33;20018;-82
2021/06/12 02:32:10;;;;;;;;;;;21.60;75.20;;;;;;4275150;33;20059;-82
2021/06/12 02:34:37;;;;;;;;;;;21.60;75.20;;;;;;4274661;33;29827;-83
2021/06/12 02:37:08;;;;;;;;;;;21.60;75.20;;;;;;4263136;33;20003;-82
2021/06/12 02:39:38;;;;;;;;;;;21.60;75.30;;;;;;4273931;33;34498;-82
2021/06/12 02:42:08;;;;;;;;;;;21.60;75.20;;;;;;4274196;33;30253;-82
2021/06/12 02:44:37;;;;;;;;;;;21.50;75.40;;;;;;4261792;33;43487;-82
2021/06/12 02:47:10;;;;;;;;;;;21.40;75.50;;;;;;4274502;33;20059;-82
2021/06/12 02:49:37;;;;;;;;;;;21.40;75.70;;;;;;4275909;33;20412;-82
2021/06/12 02:52:10;;;;;;;;;;;21.40;75.80;;;;;;4274833;33;20026;-82
2021/06/12 02:54:38;;;;;;;;;;;21.40;75.80;;;;;;4275374;33;20310;-82
2021/06/12 02:57:06;;;;;;;;;;;21.30;75.80;;;;;;4274570;33;20021;-82
2021/06/12 02:59:34;;;;;;;;;;;21.30;75.90;;;;;;4276151;33;20019;-82
2021/06/12 03:02:02;;;;;;;;;;;21.30;76.00;;;;;;4274629;33;20066;-82
2021/06/12 03:04:30;;;;;;;;;;;21.20;76.10;;;;;;4274912;33;20014;-82
2021/06/12 03:06:58;;;;;;;;;;;21.20;76.00;;;;;;4274275;33;20098;-81
2021/06/12 03:09:32;;;;;;;;;;;21.20;76.10;;;;;;4273383;33;45009;-82
2021/06/12 03:11:59;;;;;;;;;;;21.20;76.00;;;;;;4275115;33;36804;-81
2021/06/12 03:14:30;;;;;;;;;;;21.20;76.00;;;;;;4274410;33;37522;-82
2021/06/12 03:16:58;;;;;;;;;;;21.20;76.00;;;;;;4274276;33;27714;-82
2021/06/12 03:19:26;;;;;;;;;;;21.20;76.00;;;;;;4274711;33;41679;-81
2021/06/12 03:21:56;;;;;;;;;;;21.20;76.00;;;;;;4275552;33;20037;-82
2021/06/12 03:24:25;;;;;;;;;;;21.10;76.00;;;;;;4274540;33;44189;-82
2021/06/12 03:26:59;;;;;;;;;;;21.20;76.10;;;;;;4273626;33;39289;-82
2021/06/12 03:29:35;;;;;;;;;;;21.10;76.00;;;;;;4274934;33;21719;-82
2021/06/12 03:32:02;;;;;;;;;;;21.10;76.00;;;;;;4262525;33;20428;-81
2021/06/12 03:34:32;;;;;;;;;;;21.10;76.00;;;;;;4261363;33;35962;-82
2021/06/12 03:37:02;;;;;;;;;;;21.10;75.90;;;;;;4274377;33;20403;-82
2021/06/12 03:39:35;;;;;;;;;;;21.20;75.90;;;;;;4274586;33;40696;-82
2021/06/12 03:42:03;;;;;;;;;;;21.10;75.70;;;;;;4274714;33;35895;-82
2021/06/12 03:44:30;;;;;;;;;;;21.10;75.80;;;;;;4274254;33;42690;-81
2021/06/12 03:46:58;;;;;;;;;;;21.10;75.70;;;;;;4262293;33;20397;-82
2021/06/12 03:49:31;;;;;;;;;;;21.10;75.60;;;;;;4275461;33;20019;-81
2021/06/12 03:51:58;;;;;;;;;;;21.10;75.60;;;;;;4273891;33;20023;-81
2021/06/12 03:54:26;;;;;;;;;;;21.10;75.60;;;;;;4273619;33;23606;-82
2021/06/12 03:56:59;;;;;;;;;;;21.00;75.70;;;;;;4275365;33;20011;-81
2021/06/12 03:59:29;;;;;;;;;;;21.00;75.80;;;;;;4273765;33;20016;-81
2021/06/12 04:01:56;;;;;;;;;;;21.00;75.80;;;;;;4273098;33;21647;-82
2021/06/12 04:04:27;;;;;;;;;;;20.90;76.00;;;;;;4274628;33;20015;-81
2021/06/12 04:06:57;;;;;;;;;;;20.90;76.10;;;;;;4262209;33;20009;-81
2021/06/12 04:09:27;;;;;;;;;;;20.80;76.20;;;;;;4273826;33;20011;-80
2021/06/12 04:12:00;;;;;;;;;;;20.80;76.40;;;;;;4274585;33;20355;-82
2021/06/12 04:14:28;;;;;;;;;;;20.80;76.60;;;;;;4274074;33;20011;-81
2021/06/12 04:16:57;;;;;;;;;;;20.70;76.60;;;;;;4274924;33;20401;-81
2021/06/12 04:19:28;;;;;;;;;;;20.70;76.80;;;;;;4274575;33;20386;-81
2021/06/12 04:21:58;;;;;;;;;;;20.70;77.00;;;;;;4275103;33;20015;-81
2021/06/12 04:24:25;;;;;;;;;;;20.60;77.10;;;;;;4273468;33;20028;-81
2021/06/12 04:26:52;;;;;;;;;;;20.60;77.20;;;;;;4274459;33;20405;-81
2021/06/12 04:29:21;;;;;;;;;;;20.60;77.20;;;;;;4274191;33;20424;-81
2021/06/12 04:31:51;;;;;;;;;;;20.60;77.20;;;;;;4273074;33;20025;-81
2021/06/12 04:34:22;;;;;;;;;;;20.70;77.20;;;;;;4274911;33;20007;-81
2021/06/12 04:36:52;;;;;;;;;;;20.70;77.20;;;;;;4274257;33;20018;-81
2021/06/12 04:39:23;;;;;;;;;;;20.60;77.20;;;;;;4274271;33;20018;-81
2021/06/12 04:41:52;;;;;;;;;;;20.60;77.30;;;;;;4273705;33;20006;-81
2021/06/12 04:44:24;;;;;;;;;;;20.60;77.40;;;;;;4274059;33;20007;-80
2021/06/12 04:46:52;;;;;;;;;;;20.60;77.50;;;;;;4273381;33;20042;-81
2021/06/12 04:49:19;;;;;;;;;;;20.60;77.80;;;;;;4273823;33;20014;-82
2021/06/12 04:51:46;;;;;;;;;;;20.50;77.70;;;;;;4273542;33;20438;-81
2021/06/12 04:54:19;;;;;;;;;;;20.60;77.80;;;;;;4274325;33;19999;-81
2021/06/12 04:56:48;;;;;;;;;;;20.60;77.80;;;;;;4274168;33;20073;-81
2021/06/12 04:59:19;;;;;;;;;;;20.60;77.80;;;;;;4274493;33;20392;-81
2021/06/12 05:01:48;;;;;;;;;;;20.50;77.80;;;;;;4273951;33;20443;-81
2021/06/12 05:04:15;;;;;;;;;;;20.60;78.00;;;;;;4274185;33;20022;-81
2021/06/12 05:06:45;;;;;;;;;;;20.50;78.00;;;;;;4273929;33;19999;-82
2021/06/12 05:09:12;;;;;;;;;;;20.50;78.20;;;;;;4273107;33;20018;-82
2021/06/12 05:11:50;;;;;;;;;;;20.50;78.30;;;;;;4273838;33;20378;-81
2021/06/12 05:14:20;;;;;;;;;;;20.50;78.40;;;;;;4273727;33;20007;-81
2021/06/12 05:16:50;;;;;;;;;;;20.40;78.40;;;;;;4260720;33;20006;-83
2021/06/12 05:19:20;;;;;;;;;;;20.40;78.60;;;;;;4273765;33;20025;-83
2021/06/12 05:21:48;;;;;;;;;;;20.40;78.80;;;;;;4274204;33;20002;-82
2021/06/12 05:24:21;;;;;;;;;;;20.30;78.80;;;;;;4260697;33;20449;-82
2021/06/12 05:26:48;;;;;;;;;;;20.40;78.90;;;;;;4260445;33;25566;-83
2021/06/12 05:29:18;;;;;;;;;;;20.30;79.00;;;;;;4273571;33;20007;-83
2021/06/12 05:31:46;;;;;;;;;;;20.30;79.20;;;;;;4260707;33;19999;-83
2021/06/12 05:34:13;;;;;;;;;;;20.30;79.30;;;;;;4273756;33;20097;-83
2021/06/12 05:36:40;;;;;;;;;;;20.20;79.50;;;;;;4274101;33;20049;-83
2021/06/12 05:39:12;;;;;;;;;;;20.20;79.60;;;;;;4272388;33;20021;-83
2021/06/12 05:41:42;;;;;;;;;;;20.20;79.70;;;;;;4260927;33;20009;-82
2021/06/12 05:44:10;;;;;;;;;;;20.10;79.70;;;;;;4272723;33;20007;-82
2021/06/12 05:46:40;;;;;;;;;;;20.10;79.90;;;;;;4272796;33;20018;-82
2021/06/12 05:49:08;;;;;;;;;;;20.10;79.90;;;;;;4273464;33;20026;-85
2021/06/12 05:51:38;;;;;;;;;;;20.00;80.00;;;;;;4272492;33;20028;-82
2021/06/12 05:54:08;;;;;;;;;;;20.00;80.10;;;;;;4273465;33;20792;-83
2021/06/12 05:56:44;;;;;;;;;;;20.00;80.30;;;;;;4273692;33;20007;-84
2021/06/12 05:59:17;;;;;;;;;;;20.00;80.30;;;;;;4272463;33;20054;-82
2021/06/12 06:01:47;;;;;;;;;;;20.00;80.30;;;;;;4272297;33;20145;-86
2021/06/12 06:04:14;;;;;;;;;;;20.00;80.40;;;;;;4261044;33;20006;-84
2021/06/12 06:06:41;;;;;;;;;;;19.90;80.60;;;;;;4273593;33;20108;-82
2021/06/12 06:09:13;;;;;;;;;;;19.80;80.80;;;;;;4272642;33;20053;-83
2021/06/12 06:11:43;;;;;;;;;;;19.80;81.00;;;;;;4248838;33;20092;-83
2021/06/12 06:14:11;;;;;;;;;;;19.80;81.00;;;;;;4260580;33;20010;-83
2021/06/12 06:16:41;;;;;;;;;;;19.80;81.00;;;;;;4273459;33;20007;-83
2021/06/12 06:19:11;;;;;;;;;;;19.80;81.10;;;;;;4273852;33;20029;-83
2021/06/12 06:21:41;;;;;;;;;;;19.80;81.10;;;;;;4272714;33;20019;-83
2021/06/12 06:24:11;;;;;;;;;;;19.80;81.10;;;;;;4273048;33;20056;-83
2021/06/12 06:26:44;;;;;;;;;;;19.80;81.20;;;;;;4272834;33;20023;-84
2021/06/12 06:29:11;;;;;;;;;;;19.80;81.20;;;;;;4260193;33;20417;-84
2021/06/12 06:31:45;;;;;;;;;;;19.80;81.30;;;;;;4260673;33;20013;-83
2021/06/12 06:34:12;;;;;;;;;;;19.70;81.40;;;;;;4272172;33;20035;-83
2021/06/12 06:36:40;;;;;;;;;;;19.70;81.60;;;;;;4271785;33;20446;-83
2021/06/12 06:39:09;;;;;;;;;;;19.70;81.50;;;;;;4260338;33;20007;-84
2021/06/12 06:41:40;;;;;;;;;;;19.80;81.50;;;;;;4271945;33;20023;-85
2021/06/12 06:44:09;;;;;;;;;;;19.80;81.60;;;;;;4273661;33;20011;-85
2021/06/12 06:46:37;;;;;;;;;;;19.80;81.60;;;;;;4272488;33;20032;-84
2021/06/12 06:49:10;;;;;;;;;;;19.80;81.60;;;;;;4272508;33;20079;-85
2021/06/12 06:51:40;;;;;;;;;;;19.70;81.80;;;;;;4260656;33;19998;-88
2021/06/12 06:54:11;;;;;;;;;;;19.70;81.80;;;;;;4273091;33;20014;-85
2021/06/12 06:56:43;;;;;;;;;;;19.70;81.90;;;;;;4273598;33;20071;-85
2021/06/12 06:59:15;;;;;;;;;;;19.70;81.80;;;;;;4272752;33;20015;-84
2021/06/12 07:01:42;;;;;;;;;;;19.60;82.00;;;;;;4272719;33;19999;-85
2021/06/12 07:04:12;;;;;;;;;;;19.70;82.00;;;;;;4261248;33;20447;-86
2021/06/12 07:06:42;;;;;;;;;;;19.70;82.00;;;;;;4275975;33;20015;-84
2021/06/12 07:09:15;;;;;;;;;;;19.70;82.00;;;;;;4262111;33;20010;-85
2021/06/12 07:11:44;;;;;;;;;;;19.70;82.00;;;;;;4275538;33;21337;-86
2021/06/12 07:14:12;;;;;;;;;;;19.70;82.00;;;;;;4274491;33;20025;-86
2021/06/12 07:16:47;;;;;;;;;;;19.70;82.00;;;;;;4275339;33;20015;-86
2021/06/12 07:19:19;;;;;;;;;;;19.70;81.90;;;;;;4274057;33;20456;-86
2021/06/12 07:21:52;;;;;;;;;;;19.70;82.00;;;;;;4275960;33;20011;-85
2021/06/12 07:24:24;;;;;;;;;;;19.70;81.90;;;;;;4275670;33;20015;-87
2021/06/12 07:26:52;;;;;;;;;;;19.70;81.90;;;;;;4275857;33;20015;-87
2021/06/12 07:29:22;;;;;;;;;;;19.70;82.00;;;;;;4274537;33;20026;-86
2021/06/12 07:31:49;;;;;;;;;;;19.70;82.10;;;;;;4262514;33;19995;-86
2021/06/12 07:34:19;;;;;;;;;;;19.60;82.20;;;;;;4275645;33;19999;-86
2021/06/12 07:36:46;;;;;;;;;;;19.70;82.30;;;;;;4275206;33;20007;-87
2021/06/12 07:39:14;;;;;;;;;;;19.70;82.30;;;;;;4262328;33;20004;-85
2021/06/12 07:41:44;;;;;;;;;;;19.70;82.30;;;;;;4275036;33;20021;-86
2021/06/12 07:44:14;;;;;;;;;;;19.70;82.20;;;;;;4274493;33;20015;-85
2021/06/12 07:46:50;;;;;;;;;;;19.70;82.20;;;;;;4274147;33;20023;-85
2021/06/12 07:49:23;;;;;;;;;;;19.70;82.10;;;;;;4274552;33;20025;-86
2021/06/12 07:51:55;;;;;;;;;;;19.70;82.10;;;;;;4262591;33;20043;-85
2021/06/12 07:54:28;;;;;;;;;;;19.70;82.20;;;;;;4262401;33;20414;-84
2021/06/12 07:57:07;;;;;;;;;;;19.70;82.30;;;;;;4262060;33;20010;-85
2021/06/12 07:59:34;;;;;;;;;;;19.70;82.40;;;;;;4274072;33;20018;-85
2021/06/12 08:02:04;;;;;;;;;;;19.70;82.40;;;;;;4273678;33;20433;-84
2021/06/12 08:04:37;;;;;;;;;;;19.60;82.50;;;;;;4274082;33;20007;-85
2021/06/12 08:07:08;;;;;;;;;;;19.60;82.70;;;;;;4261195;33;36028;-85
2021/06/12 08:09:35;;;;;;;;;;;19.60;82.70;;;;;;4273294;33;29008;-85
2021/06/12 08:12:02;;;;;;;;;;;19.70;82.70;;;;;;4273505;33;43586;-85
2021/06/12 08:14:32;;;;;;;;;;;19.70;82.60;;;;;;4273576;33;20033;-86
2021/06/12 08:17:00;;;;;;;;;;;19.70;83.40;;;;;;4273306;33;44529;-85
2021/06/12 08:19:27;;;;;;;;;;;19.60;82.70;;;;;;4274141;33;20082;-86
2021/06/12 08:21:57;;;;;;;;;;;19.60;82.70;;;;;;4272895;33;42076;-86
2021/06/12 08:24:24;;;;;;;;;;;19.60;82.80;;;;;;4272660;33;43663;-86
2021/06/12 08:26:51;;;;;;;;;;;19.60;82.80;;;;;;4274883;33;20007;-85
2021/06/12 08:29:18;;;;;;;;;;;19.60;82.90;;;;;;4260714;33;39082;-85
2021/06/12 08:31:48;;;;;;;;;;;19.60;83.70;;;;;;4272495;33;43781;-86
2021/06/12 08:34:16;;;;;;;;;;;19.60;82.90;;;;;;4273493;33;41689;-86
2021/06/12 08:36:46;;;;;;;;;;;19.60;83.10;;;;;;4273916;33;33915;-85
2021/06/12 08:39:15;;;;;;;;;;;19.60;83.10;;;;;;4260703;33;42788;-84
2021/06/12 08:41:43;;;;;;;;;;;19.60;83.10;;;;;;4260309;33;44907;-86
2021/06/12 08:44:11;;;;;;;;;;;19.60;83.10;;;;;;4273005;33;43745;-85
2021/06/12 08:46:39;;;;;;;;;;;19.60;83.10;;;;;;4273288;33;39952;-85
2021/06/12 08:49:06;;;;;;;;;;;19.60;83.10;;;;;;4273492;33;26423;-85
2021/06/12 08:51:34;;;;;;;;;;;19.60;84.00;;;;;;4272933;33;43914;-85
2021/06/12 08:54:01;;;;;;;;;;;19.60;83.20;;;;;;4260583;33;29577;-86
2021/06/12 08:56:29;;;;;;;;;;;19.60;83.40;;;;;;4273064;33;43657;-85
2021/06/12 08:58:56;;;;;;;;;;;19.60;83.40;;;;;;4273153;33;44516;-87
2021/06/12 09:01:23;;;;;;;;;;;19.60;83.40;;;;;;4260254;33;45364;-85
2021/06/12 09:03:51;;;;;;;;;;;19.60;83.40;;;;;;4259147;33;43591;-85
2021/06/12 09:06:20;;;;;;;;;;;19.70;83.50;;;;;;4258980;33;44692;-84
2021/06/12 09:08:53;;;;;;;;;;;19.70;83.50;;;;;;4259464;33;20007;-86
2021/06/12 09:11:20;;;;;;;;;;;19.70;83.50;;;;;;4260304;33;20010;-86
2021/06/12 09:13:54;;;;;;;;;;;19.70;83.40;;;;;;4257707;33;44859;-85
2021/06/12 09:16:23;;;;;;;;;;;19.70;83.40;;;;;;4257692;33;37992;-86
2021/06/12 09:19:11;;;;;;;;;;;19.70;83.40;;;;;;4258149;33;44748;-85
2021/06/12 09:21:46;;;;;;;;;;;19.70;83.50;;;;;;4258683;33;22336;-84
2021/06/12 09:24:20;;;;;;;;;;;19.70;83.50;;;;;;4246907;33;20368;-87
2021/06/12 09:26:51;;;;;;;;;;;19.70;83.40;;;;;;4258322;33;20023;-85
2021/06/12 09:29:20;;;;;;;;;;;19.70;83.50;;;;;;4246338;33;20008;-84
2021/06/12 09:31:53;;;;;;;;;;;19.70;83.70;;;;;;4258811;33;20007;-85
2021/06/12 09:34:26;;;;;;;;;;;19.70;83.80;;;;;;4247076;33;20004;-85
2021/06/12 09:36:53;;;;;;;;;;;19.70;84.00;;;;;;4247058;33;20051;-85
2021/06/12 09:39:24;;;;;;;;;;;19.70;84.10;;;;;;4258852;33;20025;-85
2021/06/12 09:41:53;;;;;;;;;;;19.70;84.10;;;;;;4259472;33;20059;-85
2021/06/12 09:44:40;;;;;;;;;;;19.70;84.40;;;;;;4258243;33;20452;-86
2021/06/12 09:47:10;;;;;;;;;;;19.70;84.60;;;;;;4259866;33;20047;-86
2021/06/12 09:49:39;;;;;;;;;;;19.70;84.50;;;;;;4259885;33;20435;-85
2021/06/12 09:52:13;;;;;;;;;;;19.70;84.60;;;;;;4259420;33;20080;-86
2021/06/12 09:54:47;;;;;;;;;;;19.70;84.60;;;;;;4258014;33;20027;-86
2021/06/12 09:57:16;;;;;;;;;;;19.70;84.50;;;;;;4258445;33;20461;-87
2021/06/12 09:59:46;;;;;;;;;;;19.70;84.60;;;;;;4258570;33;20021;-85
2021/06/12 10:02:33;;;;;;;;;;;19.70;85.30;;;;;;4263776;33;20011;-85
2021/06/12 10:05:02;;;;;;;;;;;19.80;84.60;;;;;;4273208;33;24201;-85
2021/06/12 10:07:30;;;;;;;;;;;19.70;84.50;;;;;;4272725;33;20020;-86
2021/06/12 10:10:00;;;;;;;;;;;19.70;84.60;;;;;;4273681;33;20378;-84
2021/06/12 10:12:30;;;;;;;;;;;19.70;84.60;;;;;;4272394;33;20028;-85
2021/06/12 10:15:03;;;;;;;;;;;19.80;84.80;;;;;;4273796;33;20019;-85
2021/06/12 10:17:33;;;;;;;;;;;19.80;84.70;;;;;;4273341;33;20047;-85
2021/06/12 10:20:01;;;;;;;;;;;19.80;84.80;;;;;;4272744;33;20322;-85
2021/06/12 10:22:28;;;;;;;;;;;19.80;84.70;;;;;;4273251;33;20409;-85
2021/06/12 10:24:56;;;;;;;;;;;19.80;84.70;;;;;;4273207;33;20003;-85
2021/06/12 10:27:26;;;;;;;;;;;19.80;84.80;;;;;;4273632;33;20023;-85
2021/06/12 10:29:53;;;;;;;;;;;19.80;84.70;;;;;;4260516;33;20310;-85
2021/06/12 10:32:46;;;;;;;;;;;19.80;84.70;;;;;;4273472;33;20010;-85
2021/06/12 10:35:20;;;;;;;;;;;19.80;84.80;;;;;;4261000;33;19999;-85
2021/06/12 10:38:08;;;;;;;;;;;19.80;84.80;;;;;;4260687;33;20003;-86
2021/06/12 10:40:41;;;;;;;;;;;19.80;84.80;;;;;;4275528;33;20018;-84
2021/06/12 10:43:08;;;;;;;;;;;19.80;84.90;;;;;;4263626;33;20013;-86
2021/06/12 10:45:36;;;;;;;;;;;19.80;84.90;;;;;;4276037;33;20014;-85
2021/06/12 10:48:03;;;;;;;;;;;19.80;85.00;;;;;;4274883;33;20011;-85
2021/06/12 10:50:33;;;;;;;;;;;19.80;85.00;;;;;;4275823;33;20376;-85
2021/06/12 10:53:13;;;;;;;;;;;19.80;85.00;;;;;;4275545;33;20022;-84
2021/06/12 10:55:47;;;;;;;;;;;19.80;85.00;;;;;;4275484;33;20018;-84
2021/06/12 10:58:30;;;;;;;;;;;19.90;84.90;;;;;;4263052;33;20011;-84
2021/06/12 11:01:16;;;;;;;;;;;19.90;84.90;;;;;;4274600;33;20015;-85
2021/06/12 11:04:05;;;;;;;;;;;19.90;84.90;;;;;;4275616;33;20014;-85
2021/06/12 11:06:48;;;;;;;;;;;19.90;84.90;;;;;;4275727;33;20025;-84
2021/06/12 11:09:20;;;;;;;;;;;20.00;84.90;;;;;;4273875;33;35130;-84
2021/06/12 11:11:51;;;;;;;;;;;20.00;84.90;;;;;;4273654;33;39632;-84
2021/06/12 11:14:22;;;;;;;;;;;20.00;84.90;;;;;;4274249;33;20019;-85
2021/06/12 11:17:02;;;;;;;;;;;20.00;85.00;;;;;;4275170;33;30893;-84
2021/06/12 11:19:32;;;;;;;;;;;20.00;85.10;;;;;;4275629;33;20021;-84
2021/06/12 11:22:18;;;;;;;;;;;19.90;85.00;;;;;;4273874;33;20017;-84
2021/06/12 11:24:50;;;;;;;;;;;20.00;85.00;;;;;;4262449;33;20443;-84
2021/06/12 11:27:41;;;;;;;;;;;20.00;84.90;;;;;;4274528;33;20018;-84
2021/06/12 11:30:11;;;;;;;;;;;20.00;85.00;;;;;;4257888;33;39552;-84
2021/06/12 11:32:48;;;;;;;;;;;20.00;85.00;;;;;;4275088;33;25007;-83
2021/06/12 11:35:34;;;;;;;;;;;20.00;85.00;;;;;;4273960;33;20019;-85
2021/06/12 11:38:07;;;;;;;;;;;20.00;85.10;;;;;;4275263;33;20022;-84
2021/06/12 11:40:34;;;;;;;;;;;20.00;85.20;;;;;;4262550;33;20009;-84
2021/06/12 11:43:05;;;;;;;;;;;20.00;85.10;;;;;;4274129;33;20010;-85
2021/06/12 11:45:33;;;;;;;;;;;20.00;85.20;;;;;;4275129;33;22430;-85
2021/06/12 11:48:15;;;;;;;;;;;20.00;85.30;;;;;;4274892;33;20018;-85
2021/06/12 11:50:45;;;;;;;;;;;20.00;85.40;;;;;;4274411;33;19999;-84
2021/06/12 11:53:22;;;;;;;;;;;20.10;85.50;;;;;;4274883;33;20022;-84
2021/06/12 11:55:49;;;;;;;;;;;20.10;85.40;;;;;;4273201;33;44539;-85
2021/06/12 11:58:16;;;;;;;;;;;20.10;85.50;;;;;;4273868;33;42459;-84
2021/06/12 12:00:48;;;;;;;;;;;20.10;85.40;;;;;;4273087;33;42133;-83
2021/06/12 12:03:16;;;;;;;;;;;20.20;85.50;;;;;;4273871;33;20044;-84
2021/06/12 12:05:44;;;;;;;;;;;20.20;85.60;;;;;;4275279;33;20011;-83
2021/06/12 12:08:12;;;;;;;;;;;20.30;85.40;;;;;;4274789;33;20401;-84
2021/06/12 12:10:40;;;;;;;;;;;20.30;85.20;;;;;;4274693;33;20044;-83
2021/06/12 12:13:33;;;;;;;;;;;20.30;85.10;;;;;;4273082;33;20089;-82
2021/06/12 12:16:17;;;;;;;;;;;20.40;85.00;;;;;;4262266;33;19999;-84
2021/06/12 12:18:45;;;;;;;;;;;20.40;84.90;;;;;;4273507;33;21721;-83
2021/06/12 12:21:15;;;;;;;;;;;20.40;84.90;;;;;;4274368;33;20030;-84
2021/06/12 12:23:45;;;;;;;;;;;20.50;84.90;;;;;;4273421;33;22893;-82
2021/06/12 12:26:20;;;;;;;;;;;20.40;84.70;;;;;;4274269;33;20007;-82
2021/06/12 12:28:58;;;;;;;;;;;20.50;84.70;;;;;;4273483;33;20011;-81
2021/06/12 12:31:26;;;;;;;;;;;20.50;84.80;;;;;;4274196;33;20033;-82
2021/06/12 12:33:57;;;;;;;;;;;20.50;84.60;;;;;;4274605;33;20345;-83
2021/06/12 12:36:25;;;;;;;;;;;20.60;84.50;;;;;;4274648;33;20620;-83
2021/06/12 12:39:04;;;;;;;;;;;20.60;84.30;;;;;;4274642;33;20007;-81
2021/06/12 12:41:32;;;;;;;;;;;20.60;84.10;;;;;;4273314;33;20015;-83
2021/06/12 12:44:05;;;;;;;;;;;20.70;84.10;;;;;;4261182;33;20007;-82
2021/06/12 12:46:36;;;;;;;;;;;20.70;84.00;;;;;;4260996;33;25186;-82
2021/06/12 12:49:04;;;;;;;;;;;20.70;83.90;;;;;;4272949;33;20018;-82
2021/06/12 12:51:35;;;;;;;;;;;20.70;83.80;;;;;;4273224;33;21107;-82
2021/06/12 12:54:11;;;;;;;;;;;20.70;83.60;;;;;;4273586;33;20018;-82
2021/06/12 12:56:46;;;;;;;;;;;20.70;83.60;;;;;;4261565;33;20362;-82
2021/06/12 12:59:27;;;;;;;;;;;20.70;83.60;;;;;;4274117;33;22477;-82
2021/06/12 13:01:55;;;;;;;;;;;20.70;83.60;;;;;;4260894;33;20503;-82
2021/06/12 13:04:26;;;;;;;;;;;20.70;83.60;;;;;;4274481;33;20014;-83
2021/06/12 13:07:26;;;;;;;;;;;20.80;83.50;;;;;;4273843;33;20888;-81
2021/06/12 13:10:02;;;;;;;;;;;20.80;83.50;;;;;;4250568;33;20007;-81
2021/06/12 13:12:29;;;;;;;;;;;20.80;83.30;;;;;;4274244;33;20033;-82
2021/06/12 13:14:58;;;;;;;;;;;20.80;83.20;;;;;;4261165;33;20007;-81
2021/06/12 13:17:27;;;;;;;;;;;20.80;83.20;;;;;;4272876;33;20023;-81
2021/06/12 13:19:56;;;;;;;;;;;20.90;83.30;;;;;;4261202;33;20006;-82
2021/06/12 13:22:32;;;;;;;;;;;20.90;83.10;;;;;;4272767;33;20042;-82
2021/06/12 13:25:00;;;;;;;;;;;20.90;83.10;;;;;;4272536;33;20037;-81
2021/06/12 13:27:37;;;;;;;;;;;20.90;83.00;;;;;;4273196;33;20106;-81
2021/06/12 13:30:07;;;;;;;;;;;21.00;82.80;;;;;;4274077;33;20015;-81
2021/06/12 13:32:37;;;;;;;;;;;21.00;82.70;;;;;;4273530;33;22928;-81
2021/06/12 13:35:17;;;;;;;;;;;21.00;82.60;;;;;;4273802;33;20072;-82
2021/06/12 13:37:47;;;;;;;;;;;21.00;82.50;;;;;;4272928;33;20057;-81
2021/06/12 13:40:27;;;;;;;;;;;21.00;82.50;;;;;;4273470;33;20419;-81
2021/06/12 13:42:57;;;;;;;;;;;21.00;82.40;;;;;;4273148;33;20007;-82
2021/06/12 13:45:28;;;;;;;;;;;21.00;82.40;;;;;;4260555;33;21617;-74
2021/06/12 13:47:58;;;;;;;;;;;21.00;82.30;;;;;;4274032;33;20082;-74
2021/06/12 13:50:28;;;;;;;;;;;21.10;82.20;;;;;;4274088;33;20015;-75
2021/06/12 13:52:55;;;;;;;;;;;21.10;82.10;;;;;;4273992;33;20024;-75
2021/06/12 13:55:28;;;;;;;;;;;21.10;81.90;;;;;;4274243;33;20022;-74
2021/06/12 13:57:55;;;;;;;;;;;21.10;82.10;;;;;;4274202;33;20367;-77
2021/06/12 14:00:26;;;;;;;;;;;21.10;82.00;;;;;;4273383;33;20409;-76
2021/06/12 14:02:53;;;;;;;;;;;21.20;81.90;;;;;;4272596;33;20051;-75
2021/06/12 14:05:20;;;;;;;;;;;21.20;81.80;;;;;;4273126;33;20377;-75
2021/06/12 14:07:47;;;;;;;;;;;21.20;81.80;;;;;;4273371;33;20062;-75
2021/06/12 14:10:14;;;;;;;;;;;21.20;81.60;;;;;;4273263;33;20390;-77
2021/06/12 14:12:42;;;;;;;;;;;21.30;81.70;;;;;;4273853;33;20413;-74
2021/06/12 14:15:14;;;;;;;;;;;21.30;81.70;;;;;;4275369;33;20015;-76
2021/06/12 14:17:44;;;;;;;;;;;21.30;81.50;;;;;;4271027;33;20405;-80
2021/06/12 14:20:15;;;;;;;;;;;21.30;81.40;;;;;;4275818;33;20613;-80
2021/06/12 14:22:48;;;;;;;;;;;21.40;81.30;;;;;;4276488;33;20018;-80
2021/06/12 14:25:15;;;;;;;;;;;21.40;81.20;;;;;;4275344;33;20044;-80
2021/06/12 14:27:43;;;;;;;;;;;21.40;81.10;;;;;;4275900;33;20022;-80
2021/06/12 14:30:10;;;;;;;;;;;21.40;80.90;;;;;;4275946;33;20382;-80
2021/06/12 14:32:42;;;;;;;;;;;21.40;80.80;;;;;;4275416;33;20067;-80
2021/06/12 14:35:13;;;;;;;;;;;21.40;80.40;;;;;;4276254;33;20029;-80
2021/06/12 14:37:40;;;;;;;;;;;21.40;80.60;;;;;;4275029;33;24541;-80